Time;durP1;ratioP1;P1;durP2;ratioP2;P2;SDS_P1;SDS_P2;PMS_P1;PMS_P2;Temp;Humidity;BMP_temperature;BMP_pressure;BME280_temperature;BME280_humidity;BME280_pressure;Samples;Min_cycle;Max_cycle;Signal;HPM_P1;HPM_P2
2022/02/02 00:00:18;;;;;;;23.00;20.60;;;;;;;-0.01;100.00;96637.19;5009104;28;20030;-62
2022/02/02 00:05:27;;;;;;;27.00;22.75;;;;;;;-0.07;100.00;96632.22;5009031;28;20056;-61
2022/02/02 00:08:00;;;;;;;32.47;25.83;;;;;;;-0.05;100.00;96622.66;5009589;28;20033;-61
2022/02/02 00:13:00;;;;;;;27.33;24.33;;;;;;;0.05;100.00;96606.78;5009776;28;20084;-61
2022/02/02 00:18:15;;;;;;;25.48;22.48;;;;;;;0.10;100.00;96594.50;5009463;28;20045;-62
2022/02/02 00:20:54;;;;;;;25.52;22.95;;;;;;;0.06;100.00;96600.72;5009843;28;20068;-62
2022/02/02 00:23:24;;;;;;;28.13;23.08;;;;;;;0.07;100.00;96597.22;5009165;28;20030;-61
2022/02/02 00:25:58;;;;;;;26.20;23.38;;;;;;;0.03;100.00;96600.81;5009571;28;20030;-62
2022/02/02 00:28:28;;;;;;;27.17;23.27;;;;;;;0.05;100.00;96610.22;5009654;28;20030;-61
2022/02/02 00:30:55;;;;;;;25.80;21.50;;;;;;;0.04;100.00;96612.88;5010181;28;20113;-62
2022/02/02 00:33:26;;;;;;;25.83;23.10;;;;;;;0.06;100.00;96603.28;5009186;28;20021;-61
2022/02/02 00:36:14;;;;;;;22.48;20.27;;;;;;;0.11;100.00;96614.31;5009726;28;20032;-61
2022/02/02 00:38:39;;;;;;;30.98;22.33;;;;;;;0.13;100.00;96607.38;5009123;28;20038;-62
2022/02/02 00:41:05;;;;;;;48.15;30.92;;;;;;;0.13;100.00;96604.78;5009670;28;20103;-62
2022/02/02 00:43:30;;;;;;;47.95;31.95;;;;;;;0.11;100.00;96612.59;5010479;28;20085;-62
2022/02/02 00:45:56;;;;;;;40.28;28.95;;;;;;;0.06;100.00;96605.88;5009398;28;20448;-62
2022/02/02 00:48:26;;;;;;;50.83;32.92;;;;;;;0.12;100.00;96601.34;5009057;28;20021;-62
2022/02/02 00:50:52;;;;;;;36.78;29.20;;;;;;;0.18;100.00;96610.63;5008110;28;20406;-61
2022/02/02 00:53:18;;;;;;;27.95;24.88;;;;;;;0.27;100.00;96604.28;5009443;28;20030;-62
2022/02/02 00:55:44;;;;;;;27.40;23.85;;;;;;;0.23;100.00;96598.34;5009764;28;20022;-62
2022/02/02 00:58:10;;;;;;;29.17;25.90;;;;;;;0.27;100.00;96592.16;5010312;28;20069;-62
2022/02/02 01:00:36;;;;;;;30.63;27.42;;;;;;;0.13;100.00;96571.94;5010084;28;20026;-62
2022/02/02 01:03:02;;;;;;;31.58;27.10;;;;;;;0.21;100.00;96576.84;5010402;28;20032;-62
2022/02/02 01:05:27;;;;;;;29.52;25.70;;;;;;;0.13;100.00;96568.53;5010007;28;20038;-62
2022/02/02 01:10:37;;;;;;;28.90;25.90;;;;;;;0.04;100.00;96567.13;5009945;28;20096;-62
2022/02/02 01:18:36;;;;;;;29.48;26.35;;;;;;;0.04;100.00;96584.38;5010239;28;20556;-62
2022/02/02 01:21:05;;;;;;;27.98;25.15;;;;;;;-0.02;100.00;96594.06;5008796;28;20510;-62
2022/02/02 01:29:00;;;;;;;29.70;26.60;;;;;;;0.08;100.00;96609.25;5010364;28;20063;-62
2022/02/02 01:31:25;;;;;;;29.98;26.90;;;;;;;0.12;100.00;96608.28;5012600;28;20492;-62
2022/02/02 01:33:51;;;;;;;30.17;27.05;;;;;;;0.12;100.00;96610.88;5014303;28;20022;-62
2022/02/02 01:36:17;;;;;;;28.83;25.83;;;;;;;0.12;100.00;96603.09;5013834;28;20034;-62
2022/02/02 01:38:44;;;;;;;27.25;24.48;;;;;;;0.14;100.00;96593.53;5013488;28;20057;-62
2022/02/02 01:41:18;;;;;;;29.45;26.35;;;;;;;0.13;100.00;96597.84;5014148;28;20029;-62
2022/02/02 01:43:56;;;;;;;29.55;25.60;;;;;;;0.14;100.00;96590.94;5013534;28;20030;-62
2022/02/02 01:46:22;;;;;;;28.27;25.15;;;;;;;0.12;100.00;96585.78;5013626;28;20026;-62
2022/02/02 01:50:00;;;;;;;27.35;24.40;;;;;;;0.08;100.00;96580.78;5012777;28;20033;-61
2022/02/02 01:52:11;;;;;;;26.92;24.23;;;;;;;0.07;100.00;96581.69;5012619;28;20025;-62
2022/02/02 01:59:52;;;;;;;29.83;26.65;;;;;;;0.04;100.00;96572.28;5011162;28;20076;-61
2022/02/02 02:02:18;;;;;;;29.17;25.88;;;;;;;0.08;100.00;96565.25;5013492;28;20030;-62
2022/02/02 02:04:44;;;;;;;29.50;26.35;;;;;;;0.11;100.00;96562.53;5013978;28;20033;-62
2022/02/02 02:07:09;;;;;;;27.98;24.98;;;;;;;0.13;100.00;96565.94;5011306;28;20053;-62
2022/02/02 02:09:34;;;;;;;30.05;25.80;;;;;;;0.13;100.00;96561.59;5014144;28;20108;-62
2022/02/02 02:12:03;;;;;;;28.42;25.48;;;;;;;0.14;100.00;96562.44;5013433;28;20065;-62
2022/02/02 02:14:52;;;;;;;28.45;25.38;;;;;;;0.18;100.00;96563.16;5013269;28;20033;-62
2022/02/02 02:17:18;;;;;;;26.77;23.92;;;;;;;0.24;100.00;96562.97;5013400;28;20382;-62
2022/02/02 02:19:48;;;;;;;28.40;25.33;;;;;;;0.24;100.00;96566.38;5011732;28;20076;-62
2022/02/02 02:22:16;;;;;;;26.00;22.73;;;;;;;0.24;100.00;96568.97;5012908;28;20034;-62
2022/02/02 02:24:43;;;;;;;26.60;24.00;;;;;;;0.25;100.00;96572.41;5011376;28;20478;-61
2022/02/02 02:27:11;;;;;;;24.95;22.48;;;;;;;0.24;100.00;96563.78;5013338;28;20080;-62
2022/02/02 02:57:02;;;;;;;24.80;22.20;;;;;;;0.32;100.00;96527.22;5011471;28;20113;-62
2022/02/02 02:59:37;;;;;;;26.40;23.75;;;;;;;0.27;100.00;96522.22;5012221;28;20033;-62
2022/02/02 03:03:05;;;;;;;27.75;24.98;;;;;;;0.26;100.00;96514.53;5011167;28;20057;-62
2022/02/02 03:29:54;;;;;;;23.48;21.27;;;;;;;0.27;100.00;96511.03;5011725;28;20530;-61
2022/02/02 03:35:19;;;;;;;22.70;20.40;;;;;;;0.27;100.00;96509.25;5006833;28;20421;-61
2022/02/02 04:04:52;;;;;;;23.88;21.48;;;;;;;0.25;100.00;96518.03;4969854;28;20079;-61
2022/02/02 04:07:23;;;;;;;24.00;21.38;;;;;;;0.20;100.00;96510.41;5005916;28;20454;-61
2022/02/02 04:09:50;;;;;;;22.45;20.15;;;;;;;0.24;100.00;96514.56;5011559;28;20030;-61
2022/02/02 04:55:11;;;;;;;21.95;19.85;;;;;;;0.20;100.00;96519.91;5009945;28;20061;-62
2022/02/02 04:58:03;;;;;;;21.30;19.15;;;;;;;0.22;100.00;96518.09;5009432;28;20030;-61
2022/02/02 05:03:39;;;;;;;21.23;19.23;;;;;;;0.24;100.00;96519.75;5009487;28;20516;-62
2022/02/02 05:08:37;;;;;;;22.05;19.90;;;;;;;0.31;100.00;96516.91;5010085;28;20122;-61
2022/02/02 05:48:39;;;;;;;29.15;25.85;;;;;;;0.26;100.00;96493.81;5010345;28;20030;-62
2022/02/02 05:51:23;;;;;;;24.77;22.17;;;;;;;0.42;100.00;96510.41;5010646;28;20124;-62
2022/02/02 05:53:50;;;;;;;24.83;22.40;;;;;;;0.36;100.00;96500.31;5010054;28;20445;-62
2022/02/02 05:56:16;;;;;;;26.83;21.85;;;;;;;0.32;100.00;96503.91;5008494;28;20409;-62
2022/02/02 05:58:44;;;;;;;24.23;21.67;;;;;;;0.40;100.00;96506.22;5008270;28;20049;-62
2022/02/02 06:01:11;;;;;;;23.00;20.73;;;;;;;0.39;100.00;96494.16;5009349;28;20026;-61
2022/02/02 06:03:52;;;;;;;23.67;21.45;;;;;;;0.40;100.00;96499.28;5009551;28;20022;-62
2022/02/02 06:06:19;;;;;;;24.30;21.75;;;;;;;0.33;100.00;96508.19;5009821;28;20030;-61
2022/02/02 06:08:47;;;;;;;31.58;26.83;;;;;;;0.35;100.00;96503.78;5009911;28;20132;-62
2022/02/02 06:11:18;;;;;;;32.55;29.05;;;;;;;0.33;100.00;96494.38;5009857;28;20113;-62
2022/02/02 06:13:50;;;;;;;28.92;25.30;;;;;;;0.35;100.00;96490.00;5006036;28;20401;-62
2022/02/02 06:16:16;;;;;;;29.92;26.73;;;;;;;0.32;100.00;96488.38;5008151;28;20050;-61
2022/02/02 06:18:44;;;;;;;31.00;27.67;;;;;;;0.31;100.00;96475.47;5012710;28;20941;-62
2022/02/02 06:21:10;;;;;;;28.35;25.45;;;;;;;0.27;100.00;96470.41;5011160;28;20022;-62
2022/02/02 06:23:40;;;;;;;27.38;24.55;;;;;;;0.31;100.00;96472.88;5012567;28;20029;-62
2022/02/02 06:26:13;;;;;;;28.75;25.73;;;;;;;0.33;100.00;96471.06;5013665;28;20022;-62
2022/02/02 06:28:42;;;;;;;26.92;24.20;;;;;;;0.31;100.00;96468.56;5013343;28;20030;-62
2022/02/02 06:31:12;;;;;;;27.25;24.42;;;;;;;0.32;100.00;96465.06;5012191;28;20037;-61
2022/02/02 06:33:39;;;;;;;26.83;24.00;;;;;;;0.32;100.00;96474.56;5012511;28;20054;-62
2022/02/02 06:36:08;;;;;;;29.80;25.65;;;;;;;0.33;100.00;96463.28;5009295;28;20073;-62
2022/02/02 06:38:35;;;;;;;28.13;25.13;;;;;;;0.39;100.00;96473.44;5012692;28;20397;-62
2022/02/02 06:41:01;;;;;;;29.80;26.75;;;;;;;0.38;100.00;96484.72;5012794;28;20038;-62
2022/02/02 06:43:28;;;;;;;26.00;23.20;;;;;;;0.36;100.00;96492.53;5012466;28;20265;-61
2022/02/02 06:45:56;;;;;;;36.10;29.88;;;;;;;0.46;100.00;96495.59;5012072;28;20092;-62
2022/02/02 06:48:21;;;;;;;29.10;26.00;;;;;;;0.40;100.00;96495.84;5013081;28;20033;-62
2022/02/02 06:50:56;;;;;;;34.92;29.55;;;;;;;0.51;100.00;96508.41;5012511;28;20037;-62
2022/02/02 06:56:31;;;;;;;29.83;26.67;;;;;;;0.40;100.00;96521.75;5013171;28;20582;-62
2022/02/02 07:02:17;;;;;;;;;;;;;;;0.49;100.00;96526.56;5010808;28;20409;-62
2022/02/02 07:30:51;;;;;;;38.80;32.63;;;;;;;0.61;100.00;96576.25;5011827;28;20429;-61
2022/02/02 07:33:22;;;;;;;38.15;31.52;;;;;;;0.59;100.00;96581.50;5010010;28;20064;-62
2022/02/02 07:38:31;;;;;;;33.28;27.60;;;;;;;0.65;100.00;96577.81;5009787;28;20049;-61
2022/02/02 07:41:07;;;;;;;38.80;29.65;;;;;;;0.71;100.00;96573.25;5010011;28;20034;-60
2022/02/02 07:43:37;;;;;;;32.70;27.65;;;;;;;0.68;100.00;96578.56;5007636;28;20547;-60
2022/02/02 07:46:05;;;;;;;31.77;26.98;;;;;;;0.64;100.00;96570.97;5007362;28;20072;-62
2022/02/02 07:48:35;;;;;;;31.00;25.98;;;;;;;0.65;100.00;96583.00;5010375;28;20064;-59
2022/02/02 07:51:03;;;;;;;31.40;26.40;;;;;;;0.75;100.00;96567.94;5010973;28;20692;-61
2022/02/02 07:53:36;;;;;;;32.33;25.80;;;;;;;0.76;100.00;96577.41;5010858;28;20644;-50
2022/02/02 07:56:09;;;;;;;31.00;27.80;;;;;;;0.74;100.00;96585.22;5010648;28;20034;-54
2022/02/02 07:58:37;;;;;;;30.58;26.70;;;;;;;0.72;100.00;96584.44;5009361;28;20494;-50
2022/02/02 08:01:02;;;;;;;30.27;26.10;;;;;;;0.72;100.00;96592.22;5009639;28;20405;-49
2022/02/02 08:03:36;;;;;;;30.27;26.52;;;;;;;0.74;100.00;96587.81;5009002;28;20033;-51
2022/02/02 08:06:02;;;;;;;32.38;26.58;;;;;;;0.81;100.00;96585.84;5006090;28;20022;-53
2022/02/02 08:08:32;;;;;;;34.20;29.90;;;;;;;1.03;100.00;96592.78;5008136;28;20034;-53
2022/02/02 08:11:00;;;;;;;30.20;27.00;;;;;;;1.08;100.00;96585.66;5008426;28;20033;-53
2022/02/02 08:13:37;;;;;;;31.55;27.80;;;;;;;1.20;100.00;96586.91;5008108;28;20104;-50
2022/02/02 08:16:06;;;;;;;45.95;38.90;;;;;;;1.27;100.00;96596.97;5006750;28;20072;-49
2022/02/02 08:18:32;;;;;;;38.00;33.72;;;;;;;1.47;100.00;96592.72;5008123;28;20064;-49
2022/02/02 08:20:57;;;;;;;60.30;47.80;;;;;;;1.51;100.00;96581.31;5009029;28;20018;-51
2022/02/02 08:23:23;;;;;;;39.75;33.88;;;;;;;1.60;100.00;96590.47;5008259;28;20021;-52
2022/02/02 08:25:48;;;;;;;35.90;30.45;;;;;;;1.63;100.00;96595.50;5008774;28;20019;-51
2022/02/02 08:28:17;;;;;;;30.70;27.50;;;;;;;1.62;100.00;96585.22;5008892;28;20509;-53
2022/02/02 08:30:43;;;;;;;27.60;24.63;;;;;;;1.60;100.00;96587.84;5009964;28;20029;-54
2022/02/02 08:33:13;;;;;;;31.00;27.52;;;;;;;1.61;100.00;96594.75;5010012;28;20022;-53
2022/02/02 08:35:43;;;;;;;32.70;28.73;;;;;;;1.65;100.00;96585.09;5009443;28;20022;-51
2022/02/02 08:38:35;;;;;;;33.13;29.52;;;;;;;1.65;100.00;96585.09;5008219;28;20406;-51
2022/02/02 08:41:19;;;;;;;35.45;31.60;;;;;;;1.63;100.00;96577.34;5005399;28;20406;-53
2022/02/02 08:46:23;;;;;;;29.15;26.05;;;;;;;1.75;100.00;96577.75;5008041;28;20577;-50
2022/02/02 08:48:52;;;;;;;28.33;21.85;;;;;;;1.88;100.00;96560.75;5006143;28;20029;-55
2022/02/02 08:51:20;;;;;;;26.00;23.20;;;;;;;1.98;100.00;96562.00;5008851;28;20104;-50
2022/02/02 08:56:34;;;;;;;23.33;20.98;;;;;;;2.06;100.00;96547.81;5008429;28;20037;-54
2022/02/02 08:59:41;;;;;;;25.30;20.88;;;;;;;2.23;100.00;96553.13;5007885;28;20411;-52
2022/02/02 09:01:52;;;;;;;23.13;20.63;;;;;;;2.40;100.00;96560.13;5005187;28;20034;-50
2022/02/02 09:07:03;;;;;;;21.55;18.58;;;;;;;2.48;100.00;96569.34;5009852;28;20036;-51
2022/02/02 09:25:35;;;;;;;14.55;12.43;;;;;;;3.26;100.00;96616.84;5005409;28;20485;-52
2022/02/02 09:35:38;;;;;;;26.30;22.85;;;;;;;3.46;100.00;96607.22;5007566;28;20026;-53
2022/02/02 09:38:03;;;;;;;21.42;19.50;;;;;;;3.79;100.00;96600.41;5009003;28;20030;-50
2022/02/02 09:43:16;;;;;;;16.15;14.65;;;;;;;4.01;100.00;96598.38;5005774;28;20040;-51
2022/02/02 09:45:44;;;;;;;16.33;14.73;;;;;;;4.18;100.00;96595.81;5006028;28;20029;-52
2022/02/02 09:48:19;;;;;;;16.67;15.05;;;;;;;4.52;99.62;96591.44;5007811;28;20509;-50
2022/02/02 09:50:50;;;;;;;15.25;13.85;;;;;;;5.13;98.17;96583.78;5009071;28;20509;-60
2022/02/02 09:53:30;;;;;;;11.70;10.60;;;;;;;5.58;95.44;96584.69;5012872;28;20038;-61
2022/02/02 09:56:17;;;;;;;10.07;9.10;;;;;;;5.69;94.12;96580.59;5010906;28;20025;-60
2022/02/02 10:07:29;;;;;;;10.98;10.07;;;;;;;6.11;90.79;96586.03;5012410;28;20057;-61
2022/02/02 10:15:32;;;;;;;8.85;7.95;;;;;;;6.51;91.96;96598.47;5007831;28;20497;-61
2022/02/02 10:18:09;;;;;;;9.50;8.63;;;;;;;6.67;90.51;96599.19;5012265;28;20058;-62
2022/02/02 10:20:36;;;;;;;11.98;9.00;;;;;;;6.92;89.86;96600.28;5009160;28;20084;-61
2022/02/02 10:23:03;;;;;;;10.18;9.05;;;;;;;6.93;89.53;96608.97;5008768;28;20100;-62
2022/02/02 10:25:31;;;;;;;11.85;10.07;;;;;;;6.92;88.47;96607.28;5004864;28;20119;-62
2022/02/02 10:28:12;;;;;;;11.05;9.93;;;;;;;6.88;88.61;96615.31;5010764;28;20037;-62
2022/02/02 10:30:40;;;;;;;17.30;15.48;;;;;;;6.93;88.97;96616.81;5011468;28;20544;-61
2022/02/02 10:33:11;;;;;;;15.45;12.40;;;;;;;6.96;88.88;96614.84;5009986;28;20121;-62
2022/02/02 10:35:45;;;;;;;13.18;11.77;;;;;;;7.17;88.43;96609.19;5011457;28;20026;-62
2022/02/02 10:38:13;;;;;;;22.58;16.50;;;;;;;7.17;88.35;96610.00;5011819;28;20033;-62
2022/02/02 10:40:53;;;;;;;16.45;14.75;;;;;;;7.37;86.42;96609.69;5011822;28;20037;-62
2022/02/02 10:43:34;;;;;;;13.60;11.23;;;;;;;7.55;85.52;96611.13;5011722;28;20125;-62
2022/02/02 10:46:52;;;;;;;11.32;10.23;;;;;;;7.85;83.66;96604.78;5011076;28;20498;-62
2022/02/02 10:49:25;;;;;;;11.93;10.82;;;;;;;7.96;83.29;96595.38;5009835;28;20426;-62
2022/02/02 10:52:04;;;;;;;8.23;7.53;;;;;;;8.15;82.49;96585.28;5010620;28;20546;-62
2022/02/02 10:57:11;;;;;;;10.77;9.77;;;;;;;8.38;80.77;96574.97;5009443;28;20030;-61
2022/02/02 11:07:55;;;;;;;7.87;7.17;;;;;;;8.51;80.15;96567.16;5010733;28;20045;-61
2022/02/02 11:10:22;;;;;;;7.95;7.15;;;;;;;8.46;79.94;96570.06;5009843;28;20494;-61
2022/02/02 11:12:49;;;;;;;10.25;6.80;;;;;;;8.75;78.99;96558.47;5011064;28;20030;-61
2022/02/02 11:15:36;;;;;;;6.45;5.90;;;;;;;9.02;78.18;96553.00;5009507;28;20034;-61
2022/02/02 11:18:06;;;;;;;6.88;6.28;;;;;;;8.98;78.40;96548.13;5010875;28;20065;-62
2022/02/02 11:20:32;;;;;;;8.32;6.03;;;;;;;8.95;79.03;96546.53;5012193;28;20025;-61
2022/02/02 11:22:59;;;;;;;9.55;6.85;;;;;;;9.10;77.49;96544.59;5011628;28;20041;-61
2022/02/02 11:25:24;;;;;;;6.53;5.65;;;;;;;8.97;77.20;96539.38;5008343;28;20029;-60
2022/02/02 11:27:51;;;;;;;6.65;6.03;;;;;;;8.94;77.14;96530.88;5010159;28;20034;-60
2022/02/02 11:30:23;;;;;;;9.35;7.05;;;;;;;9.02;76.85;96528.56;5008109;28;20630;-60
2022/02/02 11:32:58;;;;;;;6.90;6.18;;;;;;;9.19;76.35;96531.75;5012145;28;20052;-60
2022/02/02 11:38:18;;;;;;;5.43;4.93;;;;;;;8.99;76.98;96526.16;5007630;28;20088;-60
2022/02/02 11:43:57;;;;;;;7.93;5.60;;;;;;;9.27;76.04;96517.06;5011064;28;20034;-60
2022/02/02 11:47:05;;;;;;;4.22;3.90;;;;;;;9.53;74.61;96510.81;5009781;28;20493;-61
2022/02/02 11:49:52;;;;;;;3.60;3.40;;;;;;;9.68;73.30;96503.56;5010821;28;20038;-60
2022/02/02 11:52:41;;;;;;;7.40;4.88;;;;;;;9.62;73.02;96507.53;5009152;28;20022;-60
2022/02/02 11:55:12;;;;;;;5.13;4.15;;;;;;;10.01;71.88;96501.94;5010001;28;20117;-60
2022/02/02 11:58:18;;;;;;;3.95;3.58;;;;;;;10.04;70.98;96499.91;5011123;28;20030;-61
2022/02/02 12:01:07;;;;;;;10.63;5.45;;;;;;;10.23;70.61;96509.00;5009750;28;20030;-60
2022/02/02 12:03:48;;;;;;;4.97;4.00;;;;;;;10.05;70.97;96498.13;5011586;28;20553;-61
2022/02/02 12:18:53;;;;;;;4.90;3.13;;;;;;;10.44;68.97;96487.25;5011222;28;20494;-61
2022/02/02 12:49:21;;;;;;;8.68;3.65;;;;;;;9.60;72.24;96414.75;5008607;28;20091;-59
2022/02/02 12:57:38;;;;;;;3.70;3.40;;;;;;;9.66;72.09;96395.91;5008135;28;20467;-60
2022/02/02 13:00:07;;;;;;;3.22;2.90;;;;;;;9.88;72.17;96386.34;5007570;28;20076;-58
2022/02/02 13:02:38;;;;;;;2.90;2.70;;;;;;;9.87;71.29;96384.66;5008939;28;20025;-60
2022/02/02 13:05:04;;;;;;;3.30;3.00;;;;;;;9.79;71.85;96387.91;5007419;28;20018;-60
2022/02/02 13:07:31;;;;;;;3.05;2.72;;;;;;;9.68;71.78;96391.34;5008615;28;20513;-60
2022/02/02 13:09:59;;;;;;;3.15;2.95;;;;;;;9.53;72.71;96396.03;5009413;28;20025;-60
2022/02/02 13:12:45;;;;;;;6.38;3.10;;;;;;;9.66;72.04;96395.91;5009885;28;20021;-60
2022/02/02 13:20:35;;;;;;;1.83;1.73;;;;;;;9.87;69.73;96408.34;5010306;28;20037;-61
2022/02/02 13:23:01;;;;;;;;;;;;;;;9.88;69.93;96405.56;5009794;28;20529;-60
2022/02/02 13:25:33;;;;;;;2.67;2.30;;;;;;;10.03;69.66;96408.78;5007611;28;19928;-60
2022/02/02 13:28:00;;;;;;;2.80;2.60;;;;;;;9.96;69.44;96420.75;5011100;28;20030;-61
2022/02/02 13:30:38;;;;;;;2.95;2.75;;;;;;;10.28;69.25;96419.16;5011102;28;20029;-60
2022/02/02 13:33:27;;;;;;;3.13;2.92;;;;;;;10.30;69.61;96418.09;5011487;28;20116;-60
2022/02/02 13:36:33;;;;;;;4.15;2.85;;;;;;;10.42;69.16;96437.38;5011675;28;20030;-60
2022/02/02 14:04:45;;;;;;;2.05;1.90;;;;;;;10.95;65.14;96434.94;5012095;28;20026;-60
2022/02/02 14:31:17;;;;;;;1.75;1.65;;;;;;;11.24;63.00;96410.59;5010271;28;20037;-59
2022/02/02 14:33:45;;;;;;;1.83;1.70;;;;;;;10.94;63.79;96405.13;5012753;28;20397;-58
2022/02/02 14:36:15;;;;;;;1.40;1.40;;;;;;;10.92;63.59;96407.03;5010869;28;20032;-58
2022/02/02 14:39:27;;;;;;;1.50;1.40;;;;;;;11.04;63.82;96403.38;5011062;28;20532;-60
2022/02/02 14:41:40;;;;;;;2.25;1.50;;;;;;;11.30;63.25;96404.81;5004573;28;20050;-61
2022/02/02 14:47:20;;;;;;;1.50;1.40;;;;;;;10.73;64.30;96405.09;5011477;28;20096;-60
2022/02/02 14:49:51;;;;;;;1.88;1.67;;;;;;;10.64;63.86;96398.78;5002463;28;20050;-60
2022/02/02 15:29:18;;;;;;;4.97;4.53;;;;;;;8.27;75.71;96428.81;4985985;28;20046;-60
2022/02/02 15:31:44;;;;;;;6.63;6.03;;;;;;;8.52;75.69;96424.47;5007640;28;20026;-62
2022/02/02 15:34:16;;;;;;;8.88;6.50;;;;;;;8.73;75.33;96421.22;5009237;28;20022;-62
2022/02/02 15:39:11;;;;;;;5.47;4.97;;;;;;;8.48;75.84;96420.34;5010399;28;20505;-61
2022/02/02 15:41:56;;;;;;;6.72;5.20;;;;;;;8.27;76.91;96415.69;5010471;28;20025;-60
2022/02/02 16:00:39;;;;;;;5.70;5.18;;;;;;;7.66;78.79;96424.31;5009036;28;20037;-62
2022/02/02 16:05:29;;;;;;;7.47;6.88;;;;;;;7.14;81.39;96426.91;5009375;28;20418;-60
2022/02/02 16:07:56;;;;;;;6.20;5.60;;;;;;;6.94;82.28;96424.75;5010612;28;20033;-60
2022/02/02 16:10:37;;;;;;;5.63;5.13;;;;;;;6.82;83.24;96426.41;5011240;28;20038;-60
2022/02/02 16:13:02;;;;;;;6.00;5.50;;;;;;;6.76;83.31;96422.44;5010413;28;20022;-59
2022/02/02 16:15:30;;;;;;;4.75;4.35;;;;;;;6.78;83.56;96433.66;5009583;28;20037;-59
2022/02/02 16:18:19;;;;;;;5.70;4.70;;;;;;;6.66;84.40;96439.66;5010477;28;20136;-60
2022/02/02 16:37:15;;;;;;;8.05;7.15;;;;;;;5.62;89.02;96454.72;5008715;28;20049;-60
2022/02/02 16:39:53;;;;;;;9.07;8.18;;;;;;;5.50;89.28;96455.47;5010159;28;20033;-59
2022/02/02 16:45:04;;;;;;;9.73;8.77;;;;;;;5.24;90.65;96447.41;5010136;28;20113;-61
2022/02/02 16:47:29;;;;;;;10.77;9.68;;;;;;;5.14;91.09;96453.16;5007710;28;20077;-58
2022/02/02 16:49:55;;;;;;;12.82;11.50;;;;;;;5.09;92.02;96450.00;5003964;28;20029;-59
2022/02/02 16:52:23;;;;;;;17.02;15.32;;;;;;;5.01;92.47;96439.16;5004374;28;20033;-59
2022/02/02 16:54:49;;;;;;;27.73;24.42;;;;;;;4.91;93.28;96441.47;5006429;28;20029;-58
2022/02/02 17:35:49;;;;;;;9.20;8.38;;;;;;;4.05;96.92;96452.28;5008469;28;20515;-60
2022/02/02 17:40:31;;;;;;;9.00;8.13;;;;;;;4.37;94.95;96457.53;5007048;28;20056;-59
2022/02/02 18:12:17;;;;;;;41.13;34.17;;;;;;;4.22;96.18;96482.69;5009177;28;20045;-62
2022/02/02 18:20:01;;;;;;;58.30;42.53;;;;;;;4.27;96.20;96485.88;5013307;28;20510;-62
2022/02/02 18:22:35;;;;;;;69.03;45.08;;;;;;;4.28;95.84;96488.38;5011698;28;20045;-62
2022/02/02 18:25:18;;;;;;;42.03;34.47;;;;;;;4.28;95.96;96490.97;5011386;28;20030;-63
2022/02/02 18:28:03;;;;;;;41.97;34.22;;;;;;;4.28;95.38;96488.38;5010115;28;20038;-64
2022/02/02 18:35:25;;;;;;;61.00;27.27;;;;;;;4.26;96.81;96500.66;5013011;28;20081;-64
2022/02/02 18:43:37;;;;;;;27.42;21.52;;;;;;;4.25;96.12;96488.53;5010611;28;20520;-64
2022/02/02 18:54:12;;;;;;;12.63;8.75;;;;;;;4.09;96.56;96498.09;5011479;28;20083;-63
2022/02/02 19:01:49;;;;;;;16.23;11.40;;;;;;;3.95;97.25;96478.84;5010176;28;20112;-62
2022/02/02 19:37:17;;;;;;;35.35;30.90;;;;;;;3.35;99.16;96500.19;5010790;28;20049;-64
2022/02/02 20:04:37;;;;;;;33.90;22.90;;;;;;;2.75;100.00;96478.78;5009017;28;20047;-63
2022/02/02 20:09:25;;;;;;;53.97;27.23;;;;;;;2.81;100.00;96462.06;5009341;28;20026;-63
2022/02/02 20:11:44;;;;;;;29.88;19.13;;;;;;;2.80;100.00;96452.56;5008257;28;20037;-63
2022/02/02 20:14:12;;;;;;;22.42;15.20;;;;;;;2.79;100.00;96451.75;5010048;28;20038;-63
2022/02/02 20:16:37;;;;;;;17.73;14.38;;;;;;;2.72;99.81;96447.75;5009763;28;20030;-62
2022/02/02 20:19:06;;;;;;;16.95;14.95;;;;;;;2.64;99.80;96460.28;5009583;28;20416;-63
2022/02/02 20:21:36;;;;;;;19.83;15.73;;;;;;;2.63;99.46;96453.41;5006191;28;20030;-63
2022/02/02 20:24:05;;;;;;;19.52;16.13;;;;;;;2.52;100.00;96453.91;5008630;28;20594;-63
2022/02/02 20:26:32;;;;;;;18.67;15.05;;;;;;;2.42;100.00;96450.91;5007785;28;20116;-63
2022/02/02 20:29:01;;;;;;;17.35;15.55;;;;;;;2.30;100.00;96462.72;5008456;28;20029;-63
2022/02/02 20:31:27;;;;;;;19.60;17.50;;;;;;;2.21;100.00;96464.00;5008673;28;20029;-63
2022/02/02 20:33:52;;;;;;;22.40;18.42;;;;;;;2.19;100.00;96464.97;5008448;28;20032;-62
2022/02/02 20:36:18;;;;;;;18.33;16.13;;;;;;;2.12;100.00;96456.66;5007688;28;20029;-63
2022/02/02 20:38:43;;;;;;;18.35;15.90;;;;;;;2.09;100.00;96455.03;5007365;28;20492;-63
2022/02/02 20:41:09;;;;;;;23.45;16.90;;;;;;;2.08;100.00;96458.53;5008348;28;20029;-63
2022/02/02 20:43:49;;;;;;;17.13;15.32;;;;;;;2.15;100.00;96453.91;5008189;28;20120;-63
2022/02/02 21:10:18;;;;;;;15.35;13.40;;;;;;;1.90;100.00;96462.81;5008505;28;20037;-63
2022/02/02 21:15:31;;;;;;;13.73;10.77;;;;;;;1.85;100.00;96467.34;5006565;28;20053;-63
2022/02/02 21:18:05;;;;;;;17.05;11.18;;;;;;;1.80;100.00;96471.91;5008946;28;20131;-63
2022/02/02 21:20:35;;;;;;;15.00;11.93;;;;;;;1.76;100.00;96465.19;5010177;28;20038;-62
2022/02/02 21:23:10;;;;;;;17.45;13.20;;;;;;;1.81;100.00;96466.69;5009834;28;20026;-63
2022/02/02 21:25:42;;;;;;;17.23;12.10;;;;;;;1.84;100.00;96463.06;5007052;28;20458;-63
2022/02/02 21:28:09;;;;;;;16.48;12.75;;;;;;;1.74;100.00;96457.44;5010277;28;20045;-64
2022/02/02 21:30:37;;;;;;;14.25;12.75;;;;;;;1.74;100.00;96454.03;5012871;28;20398;-63
2022/02/02 21:33:03;;;;;;;21.73;16.13;;;;;;;1.69;100.00;96462.88;5005139;28;20026;-62
2022/02/02 21:35:29;;;;;;;22.95;16.55;;;;;;;1.70;100.00;96454.19;5006197;28;20064;-62
2022/02/02 21:38:05;;;;;;;23.55;17.40;;;;;;;1.75;100.00;96448.75;5007836;28;20061;-62
2022/02/02 21:40:31;;;;;;;;;;;;;;;1.65;100.00;96450.91;5007867;28;20030;-62
2022/02/02 21:42:58;;;;;;;22.15;16.38;;;;;;;1.65;100.00;96440.53;5007332;28;19917;-62
2022/02/02 21:45:26;;;;;;;28.23;18.52;;;;;;;1.65;100.00;96424.13;5006814;28;20029;-61
2022/02/02 21:47:51;;;;;;;23.63;18.88;;;;;;;1.63;100.00;96421.59;5009528;28;20112;-61
2022/02/02 21:50:19;;;;;;;22.95;16.35;;;;;;;1.67;100.00;96422.31;5013666;28;20022;-60
2022/02/02 21:52:46;;;;;;;22.85;16.20;;;;;;;1.68;100.00;96404.06;5012575;28;20397;-63
2022/02/02 21:55:12;;;;;;;24.15;18.05;;;;;;;1.71;100.00;96403.94;5012897;28;20105;-62
2022/02/02 21:57:38;;;;;;;23.70;17.55;;;;;;;1.78;100.00;96408.84;5011509;28;20073;-61
2022/02/02 22:00:09;;;;;;;30.38;21.10;;;;;;;1.79;100.00;96410.53;5012440;28;20030;-61
2022/02/02 22:02:36;;;;;;;23.52;19.70;;;;;;;1.83;100.00;96417.25;5009522;28;20557;-63
2022/02/02 22:05:04;;;;;;;26.92;19.92;;;;;;;1.81;100.00;96411.28;5012045;28;20032;-62
2022/02/02 22:07:30;;;;;;;26.48;19.77;;;;;;;1.74;100.00;96413.31;5012030;28;20026;-62
2022/02/02 22:09:56;;;;;;;28.88;20.75;;;;;;;1.65;100.00;96429.31;5012378;28;20162;-62
2022/02/02 22:12:22;;;;;;;27.30;22.05;;;;;;;1.55;100.00;96428.88;5012820;28;20066;-62
2022/02/02 22:14:50;;;;;;;31.20;21.70;;;;;;;1.45;100.00;96422.44;5011930;28;20025;-62
2022/02/02 22:17:16;;;;;;;32.88;23.42;;;;;;;1.39;100.00;96434.75;5012026;28;20030;-62
2022/02/02 22:19:42;;;;;;;36.05;23.70;;;;;;;1.34;100.00;96438.47;5012410;28;20057;-62
2022/02/02 22:22:08;;;;;;;36.97;24.25;;;;;;;1.29;100.00;96443.84;5011592;28;20022;-62
2022/02/02 22:24:36;;;;;;;33.95;23.13;;;;;;;1.26;100.00;96449.19;5012273;28;20036;-62
2022/02/02 22:27:02;;;;;;;32.72;24.10;;;;;;;1.20;100.00;96446.81;5011963;28;20026;-62
2022/02/02 22:29:27;;;;;;;29.48;22.65;;;;;;;1.10;100.00;96457.59;5012138;28;20543;-62
2022/02/02 22:31:53;;;;;;;45.08;28.00;;;;;;;1.12;100.00;96463.56;5007045;28;20045;-62
2022/02/02 22:34:18;;;;;;;37.17;24.05;;;;;;;1.19;100.00;96458.97;5011051;28;20025;-61
2022/02/02 22:36:43;;;;;;;35.55;25.55;;;;;;;1.16;100.00;96466.88;5010823;28;20046;-62
2022/02/02 22:39:10;;;;;;;32.95;24.25;;;;;;;1.03;100.00;96474.34;5008753;28;20021;-62
2022/02/02 22:41:35;;;;;;;30.27;21.00;;;;;;;0.95;100.00;96471.19;5010492;28;20029;-62
2022/02/02 22:44:07;;;;;;;28.73;18.90;;;;;;;0.94;100.00;96459.16;5011765;28;20091;-62